createdAt,value
2023-05-21T00:00:39.687Z,459.00
2023-05-21T00:01:39.675Z,458.00
2023-05-21T00:02:39.766Z,456.00
2023-05-21T00:03:39.735Z,455.00
2023-05-21T00:04:39.680Z,455.00
2023-05-21T00:05:39.771Z,457.00
2023-05-21T00:06:39.642Z,457.00
2023-05-21T00:07:39.669Z,455.00
2023-05-21T00:08:40.547Z,454.00
2023-05-21T00:09:39.655Z,453.00
2023-05-21T00:10:39.649Z,454.00
2023-05-21T00:11:39.628Z,455.00
2023-05-21T00:12:39.672Z,455.00
2023-05-21T00:13:39.595Z,455.00
2023-05-21T00:14:39.575Z,455.00
2023-05-21T00:15:39.577Z,455.00
2023-05-21T00:16:39.621Z,453.00
2023-05-21T00:17:39.600Z,454.00
2023-05-21T00:18:39.548Z,456.00
2023-05-21T00:19:39.576Z,456.00
2023-05-21T00:20:39.556Z,457.00
2023-05-21T00:21:39.554Z,457.00
2023-05-21T00:22:39.541Z,457.00
2023-05-21T00:23:39.529Z,457.00
2023-05-21T00:24:39.547Z,459.00
2023-05-21T00:25:39.545Z,459.00
2023-05-21T00:26:39.506Z,458.00
2023-05-21T00:27:39.503Z,458.00
2023-05-21T00:28:39.458Z,458.00
2023-05-21T00:29:39.565Z,457.00
2023-05-21T00:30:39.488Z,456.00
2023-05-21T00:31:39.521Z,454.00
2023-05-21T00:32:39.555Z,455.00
2023-05-21T00:33:39.539Z,454.00
2023-05-21T00:34:39.549Z,453.00
2023-05-21T00:35:39.530Z,452.00
2023-05-21T00:36:39.549Z,450.00
2023-05-21T00:37:39.547Z,451.00
2023-05-21T00:38:39.575Z,453.00
2023-05-21T00:39:39.580Z,454.00
2023-05-21T00:40:39.609Z,454.00
2023-05-21T00:41:39.587Z,454.00
2023-05-21T00:42:39.590Z,457.00
2023-05-21T00:43:39.592Z,460.00
2023-05-21T00:44:39.602Z,461.00
2023-05-21T00:45:39.761Z,460.00
2023-05-21T00:46:39.656Z,461.00
2023-05-21T00:47:39.740Z,461.00
2023-05-21T00:48:39.691Z,458.00
2023-05-21T00:49:39.686Z,458.00
2023-05-21T00:50:39.711Z,457.00
2023-05-21T00:51:39.718Z,458.00
2023-05-21T00:52:39.720Z,460.00
2023-05-21T00:53:39.748Z,459.00
2023-05-21T00:54:39.734Z,459.00
2023-05-21T00:55:39.748Z,457.00
2023-05-21T00:56:39.779Z,457.00
2023-05-21T00:57:39.785Z,459.00
2023-05-21T00:58:39.809Z,460.00
2023-05-21T00:59:39.825Z,460.00
2023-05-21T01:00:39.834Z,461.00
2023-05-21T01:01:39.838Z,460.00
2023-05-21T01:02:39.952Z,460.00
2023-05-21T01:03:39.883Z,460.00
2023-05-21T01:04:39.854Z,457.00
2023-05-21T01:05:39.917Z,457.00
2023-05-21T01:06:39.874Z,457.00
2023-05-21T01:07:39.953Z,457.00
2023-05-21T01:08:39.891Z,456.00
2023-05-21T01:09:39.912Z,457.00
2023-05-21T01:10:40.602Z,458.00
2023-05-21T01:11:39.949Z,458.00
2023-05-21T01:12:39.964Z,462.00
2023-05-21T01:13:39.987Z,461.00
2023-05-21T01:14:40.038Z,462.00
2023-05-21T01:15:40.030Z,460.00
2023-05-21T01:16:40.095Z,460.00
2023-05-21T01:17:40.040Z,461.00
2023-05-21T01:18:40.101Z,464.00
2023-05-21T01:19:40.074Z,465.00
2023-05-21T01:20:40.088Z,465.00
2023-05-21T01:21:40.077Z,464.00
2023-05-21T01:22:41.075Z,463.00
2023-05-21T01:23:40.113Z,462.00
2023-05-21T01:24:40.159Z,462.00
2023-05-21T01:25:40.164Z,461.00
2023-05-21T01:26:40.169Z,462.00
2023-05-21T01:27:40.170Z,461.00
2023-05-21T01:28:40.235Z,462.00
2023-05-21T01:29:40.220Z,461.00
2023-05-21T01:30:40.299Z,460.00
2023-05-21T01:31:40.278Z,461.00
2023-05-21T01:32:40.353Z,462.00
2023-05-21T01:33:40.410Z,461.00
2023-05-21T01:34:40.353Z,462.00
2023-05-21T01:35:40.391Z,461.00
2023-05-21T01:36:40.439Z,458.00
2023-05-21T01:37:40.404Z,459.00
2023-05-21T01:38:40.458Z,459.00
2023-05-21T01:39:40.508Z,460.00
2023-05-21T01:40:40.522Z,459.00
2023-05-21T01:41:40.526Z,459.00
2023-05-21T01:42:40.536Z,460.00
2023-05-21T01:43:40.593Z,461.00
2023-05-21T01:44:40.611Z,461.00
2023-05-21T01:45:40.653Z,461.00
2023-05-21T01:46:40.699Z,459.00
2023-05-21T01:47:40.698Z,459.00
2023-05-21T01:48:40.664Z,461.00
2023-05-21T01:49:40.687Z,461.00
2023-05-21T01:50:40.745Z,462.00
2023-05-21T01:51:40.712Z,463.00
2023-05-21T01:52:40.720Z,461.00
2023-05-21T01:53:40.740Z,460.00
2023-05-21T01:54:40.776Z,458.00
2023-05-21T01:55:40.767Z,457.00
2023-05-21T01:56:40.775Z,457.00
2023-05-21T01:57:40.794Z,459.00
2023-05-21T01:58:40.816Z,460.00
2023-05-21T01:59:40.854Z,461.00
2023-05-21T02:00:40.851Z,463.00
2023-05-21T02:01:40.868Z,463.00
2023-05-21T02:02:40.934Z,463.00
2023-05-21T02:03:41.684Z,462.00
2023-05-21T02:04:41.595Z,460.00
2023-05-21T02:05:41.048Z,459.00
2023-05-21T02:06:41.055Z,461.00
2023-05-21T02:07:41.060Z,463.00
2023-05-21T02:08:42.622Z,463.00
2023-05-21T02:09:44.677Z,466.00
2023-05-21T02:10:41.084Z,467.00
2023-05-21T02:11:41.062Z,469.00
2023-05-21T02:12:41.055Z,470.00
2023-05-21T02:13:41.041Z,470.00
2023-05-21T02:14:41.058Z,469.00
2023-05-21T02:15:41.037Z,468.00
2023-05-21T02:16:41.028Z,467.00
2023-05-21T02:17:41.084Z,467.00
2023-05-21T02:18:41.663Z,469.00
2023-05-21T02:19:41.639Z,470.00
2023-05-21T02:20:41.052Z,470.00
2023-05-21T02:21:41.018Z,470.00
2023-05-21T02:22:41.020Z,468.00
2023-05-21T02:23:40.979Z,468.00
2023-05-21T02:24:40.981Z,469.00
2023-05-21T02:25:40.962Z,469.00
2023-05-21T02:26:40.952Z,468.00
2023-05-21T02:27:40.926Z,467.00
2023-05-21T02:28:40.943Z,466.00
2023-05-21T02:29:40.957Z,463.00
2023-05-21T02:30:41.642Z,462.00
2023-05-21T02:31:40.894Z,460.00
2023-05-21T02:32:40.928Z,462.00
2023-05-21T02:33:40.945Z,462.00
2023-05-21T02:34:40.913Z,461.00
2023-05-21T02:35:40.884Z,463.00
2023-05-21T02:36:40.882Z,464.00
2023-05-21T02:37:40.863Z,465.00
2023-05-21T02:38:40.855Z,465.00
2023-05-21T02:39:40.873Z,464.00
2023-05-21T02:40:40.847Z,464.00
2023-05-21T02:41:40.859Z,463.00
2023-05-21T02:42:40.838Z,463.00
2023-05-21T02:43:41.623Z,466.00
2023-05-21T02:44:40.819Z,467.00
2023-05-21T02:45:40.850Z,465.00
2023-05-21T02:46:40.825Z,465.00
2023-05-21T02:47:41.118Z,464.00
2023-05-21T02:48:40.837Z,463.00
2023-05-21T02:49:40.810Z,464.00
2023-05-21T02:50:40.850Z,464.00
2023-05-21T02:51:40.792Z,465.00
2023-05-21T02:52:40.825Z,464.00
2023-05-21T02:53:40.771Z,466.00
2023-05-21T02:54:40.743Z,467.00
2023-05-21T02:55:41.765Z,468.00
2023-05-21T02:56:40.759Z,467.00
2023-05-21T02:57:40.730Z,468.00
2023-05-21T02:58:40.727Z,468.00
2023-05-21T02:59:40.714Z,469.00
2023-05-21T03:00:40.734Z,469.00
2023-05-21T03:01:40.756Z,469.00
2023-05-21T03:02:40.838Z,471.00
2023-05-21T03:03:40.717Z,473.00
2023-05-21T03:04:40.659Z,473.00
2023-05-21T03:05:40.689Z,472.00
2023-05-21T03:06:40.669Z,472.00
2023-05-21T03:07:40.658Z,473.00
2023-05-21T03:08:40.628Z,472.00
2023-05-21T03:09:40.644Z,471.00
2023-05-21T03:10:40.630Z,471.00
2023-05-21T03:11:40.621Z,470.00
2023-05-21T03:12:40.616Z,471.00
2023-05-21T03:13:40.596Z,471.00
2023-05-21T03:14:40.575Z,472.00
2023-05-21T03:15:40.650Z,473.00
2023-05-21T03:16:40.651Z,472.00
2023-05-21T03:17:40.637Z,474.00
2023-05-21T03:18:40.564Z,474.00
2023-05-21T03:19:40.599Z,473.00
2023-05-21T03:20:40.594Z,473.00
2023-05-21T03:21:40.584Z,471.00
2023-05-21T03:22:40.633Z,470.00
2023-05-21T03:23:40.620Z,472.00
2023-05-21T03:24:40.655Z,473.00
2023-05-21T03:25:40.646Z,472.00
2023-05-21T03:26:40.688Z,472.00
2023-05-21T03:27:40.692Z,470.00
2023-05-21T03:28:40.719Z,469.00
2023-05-21T03:29:40.740Z,470.00
2023-05-21T03:30:41.168Z,470.00
2023-05-21T03:31:40.857Z,470.00
2023-05-21T03:32:40.824Z,468.00
2023-05-21T03:33:40.822Z,466.00
2023-05-21T03:34:40.816Z,467.00
2023-05-21T03:35:40.855Z,467.00
2023-05-21T03:36:40.833Z,467.00
2023-05-21T03:37:40.863Z,465.00
2023-05-21T03:38:40.870Z,466.00
2023-05-21T03:39:40.894Z,468.00
2023-05-21T03:40:40.935Z,469.00
2023-05-21T03:41:40.935Z,470.00
2023-05-21T03:42:40.949Z,469.00
2023-05-21T03:43:40.959Z,469.00
2023-05-21T03:44:40.977Z,470.00
2023-05-21T03:45:44.218Z,469.00
2023-05-21T03:46:41.013Z,468.00
2023-05-21T03:47:41.002Z,468.00
2023-05-21T03:48:40.988Z,467.00
2023-05-21T03:49:40.944Z,468.00
2023-05-21T03:50:41.212Z,468.00
2023-05-21T03:51:40.932Z,469.00
2023-05-21T03:52:40.919Z,471.00
2023-05-21T03:53:40.949Z,472.00
2023-05-21T03:54:40.901Z,472.00
2023-05-21T03:55:41.190Z,471.00
2023-05-21T03:56:40.911Z,471.00
2023-05-21T03:57:40.910Z,469.00
2023-05-21T03:58:40.876Z,468.00
2023-05-21T03:59:40.872Z,469.00
2023-05-21T04:00:40.892Z,471.00
2023-05-21T04:01:40.869Z,472.00
2023-05-21T04:02:40.940Z,472.00
2023-05-21T04:03:41.281Z,469.00
2023-05-21T04:04:40.901Z,468.00
2023-05-21T04:05:40.823Z,469.00
2023-05-21T04:06:40.845Z,470.00
2023-05-21T04:07:40.814Z,472.00
2023-05-21T04:08:40.812Z,474.00
2023-05-21T04:09:40.803Z,474.00
2023-05-21T04:10:40.791Z,474.00
2023-05-21T04:11:40.762Z,472.00
2023-05-21T04:12:40.758Z,472.00
2023-05-21T04:13:40.766Z,472.00
2023-05-21T04:14:40.776Z,472.00
2023-05-21T04:15:40.769Z,471.00
2023-05-21T04:16:40.716Z,470.00
2023-05-21T04:17:40.715Z,471.00
2023-05-21T04:18:40.737Z,472.00
2023-05-21T04:19:40.751Z,474.00
2023-05-21T04:20:40.734Z,476.00
2023-05-21T04:21:40.691Z,474.00
2023-05-21T04:22:40.696Z,473.00
2023-05-21T04:23:40.681Z,474.00
2023-05-21T04:24:40.672Z,472.00
2023-05-21T04:25:40.685Z,471.00
2023-05-21T04:26:40.632Z,472.00
2023-05-21T04:27:40.639Z,474.00
2023-05-21T04:28:40.637Z,475.00
2023-05-21T04:29:40.639Z,475.00
2023-05-21T04:30:40.659Z,473.00
2023-05-21T04:31:40.617Z,472.00
2023-05-21T04:32:40.661Z,470.00
2023-05-21T04:33:40.619Z,473.00
2023-05-21T04:34:40.610Z,472.00
2023-05-21T04:35:40.710Z,473.00
2023-05-21T04:36:40.601Z,474.00
2023-05-21T04:37:40.581Z,476.00
2023-05-21T04:38:40.569Z,476.00
2023-05-21T04:39:40.579Z,476.00
2023-05-21T04:40:40.740Z,474.00
2023-05-21T04:41:40.536Z,478.00
2023-05-21T04:42:40.539Z,476.00
2023-05-21T04:43:40.543Z,474.00
2023-05-21T04:44:40.554Z,475.00
2023-05-21T04:45:40.511Z,474.00
2023-05-21T04:46:41.941Z,474.00
2023-05-21T04:47:40.542Z,476.00
2023-05-21T04:48:40.501Z,478.00
2023-05-21T04:49:40.466Z,474.00
2023-05-21T04:50:40.707Z,475.00
2023-05-21T04:51:40.476Z,474.00
2023-05-21T04:52:40.456Z,477.00
2023-05-21T04:53:40.425Z,477.00
2023-05-21T04:54:40.411Z,477.00
2023-05-21T04:55:40.698Z,475.00
2023-05-21T04:56:40.438Z,472.00
2023-05-21T04:57:40.467Z,471.00
2023-05-21T04:58:40.471Z,473.00
2023-05-21T04:59:40.531Z,475.00
2023-05-21T05:00:40.535Z,475.00
2023-05-21T05:01:40.555Z,479.00
2023-05-21T05:02:40.572Z,480.00
2023-05-21T05:03:40.642Z,481.00
2023-05-21T05:04:40.641Z,480.00
2023-05-21T05:05:40.746Z,477.00
2023-05-21T05:06:41.210Z,477.00
2023-05-21T05:07:40.672Z,477.00
2023-05-21T05:08:40.676Z,478.00
2023-05-21T05:09:40.703Z,478.00
2023-05-21T05:10:40.726Z,480.00
2023-05-21T05:11:40.716Z,480.00
2023-05-21T05:12:40.722Z,481.00
2023-05-21T05:13:41.287Z,479.00
2023-05-21T05:14:40.785Z,483.00
2023-05-21T05:15:41.216Z,483.00
2023-05-21T05:16:40.859Z,481.00
2023-05-21T05:17:40.921Z,484.00
2023-05-21T05:18:40.830Z,482.00
2023-05-21T05:19:40.857Z,481.00
2023-05-21T05:20:41.228Z,478.00
2023-05-21T05:21:40.931Z,476.00
2023-05-21T05:22:40.923Z,474.00
2023-05-21T05:23:40.950Z,473.00
2023-05-21T05:24:40.990Z,475.00
2023-05-21T05:25:41.011Z,474.00
2023-05-21T05:26:41.013Z,474.00
2023-05-21T05:27:41.033Z,477.00
2023-05-21T05:28:41.061Z,479.00
2023-05-21T05:29:41.123Z,479.00
2023-05-21T05:30:41.235Z,478.00
2023-05-21T05:31:41.225Z,477.00
2023-05-21T05:32:41.217Z,476.00
2023-05-21T05:33:41.193Z,478.00
2023-05-21T05:34:41.205Z,477.00
2023-05-21T05:35:41.746Z,478.00
2023-05-21T05:36:41.243Z,480.00
2023-05-21T05:37:41.290Z,477.00
2023-05-21T05:38:41.324Z,477.00
2023-05-21T05:39:41.308Z,477.00
2023-05-21T05:40:41.722Z,477.00
2023-05-21T05:41:41.364Z,475.00
2023-05-21T05:42:41.418Z,474.00
2023-05-21T05:43:41.501Z,474.00
2023-05-21T05:44:41.460Z,475.00
2023-05-21T05:45:41.738Z,476.00
2023-05-21T05:46:41.523Z,478.00
2023-05-21T05:47:41.509Z,479.00
2023-05-21T05:48:41.496Z,479.00
2023-05-21T05:49:41.517Z,476.00
2023-05-21T05:50:41.722Z,478.00
2023-05-21T05:51:41.628Z,478.00
2023-05-21T05:52:41.555Z,476.00
2023-05-21T05:53:41.606Z,478.00
2023-05-21T05:54:41.629Z,477.00
2023-05-21T05:55:41.638Z,475.00
2023-05-21T05:56:41.646Z,475.00
2023-05-21T05:57:43.266Z,478.00
2023-05-21T05:58:41.678Z,479.00
2023-05-21T05:59:41.654Z,479.00
2023-05-21T06:00:41.663Z,479.00
2023-05-21T06:01:41.669Z,477.00
2023-05-21T06:02:41.753Z,477.00
2023-05-21T06:03:41.687Z,477.00
2023-05-21T06:04:41.620Z,477.00
2023-05-21T06:05:41.633Z,475.00
2023-05-21T06:06:41.586Z,474.00
2023-05-21T06:07:41.589Z,475.00
2023-05-21T06:08:41.583Z,476.00
2023-05-21T06:09:41.601Z,474.00
2023-05-21T06:10:41.573Z,476.00
2023-05-21T06:11:41.549Z,475.00
2023-05-21T06:12:41.569Z,477.00
2023-05-21T06:13:41.530Z,479.00
2023-05-21T06:14:43.097Z,480.00
2023-05-21T06:15:41.786Z,481.00
2023-05-21T06:16:41.611Z,480.00
2023-05-21T06:17:41.531Z,481.00
2023-05-21T06:18:41.558Z,482.00
2023-05-21T06:19:41.475Z,479.00
2023-05-21T06:20:41.740Z,478.00
2023-05-21T06:21:41.496Z,477.00
2023-05-21T06:22:41.481Z,477.00
2023-05-21T06:23:41.431Z,475.00
2023-05-21T06:24:41.470Z,472.00
2023-05-21T06:25:41.455Z,473.00
2023-05-21T06:26:41.457Z,475.00
2023-05-21T06:27:41.440Z,473.00
2023-05-21T06:28:41.437Z,473.00
2023-05-21T06:29:41.438Z,472.00
2023-05-21T06:30:41.757Z,472.00
2023-05-21T06:31:41.411Z,473.00
2023-05-21T06:32:41.454Z,474.00
2023-05-21T06:33:41.489Z,475.00
2023-05-21T06:34:41.420Z,476.00
2023-05-21T06:35:41.804Z,475.00
2023-05-21T06:36:41.383Z,478.00
2023-05-21T06:37:41.402Z,478.00
2023-05-21T06:38:41.352Z,477.00
2023-05-21T06:39:41.363Z,476.00
2023-05-21T06:40:41.345Z,473.00
2023-05-21T06:41:41.321Z,471.00
2023-05-21T06:42:41.311Z,474.00
2023-05-21T06:43:41.285Z,474.00
2023-05-21T06:44:41.325Z,476.00
2023-05-21T06:45:41.588Z,476.00
2023-05-21T06:46:41.279Z,479.00
2023-05-21T06:47:41.338Z,482.00
2023-05-21T06:48:41.280Z,481.00
2023-05-21T06:49:41.277Z,483.00
2023-05-21T06:50:41.754Z,484.00
2023-05-21T06:51:41.257Z,483.00
2023-05-21T06:52:41.254Z,483.00
2023-05-21T06:53:41.233Z,481.00
2023-05-21T06:54:41.231Z,481.00
2023-05-21T06:55:41.312Z,479.00
2023-05-21T06:56:41.205Z,481.00
2023-05-21T06:57:41.209Z,482.00
2023-05-21T06:58:41.222Z,482.00
2023-05-21T06:59:41.186Z,482.00
2023-05-21T07:00:41.242Z,481.00
2023-05-21T07:01:41.226Z,481.00
2023-05-21T07:02:41.212Z,482.00
2023-05-21T07:03:41.208Z,478.00
2023-05-21T07:04:41.165Z,475.00
2023-05-21T07:05:41.138Z,474.00
2023-05-21T07:06:41.114Z,472.00
2023-05-21T07:07:41.117Z,469.00
2023-05-21T07:08:41.129Z,471.00
2023-05-21T07:09:41.128Z,473.00
2023-05-21T07:10:41.125Z,471.00
2023-05-21T07:11:41.122Z,468.00
2023-05-21T07:12:41.090Z,466.00
2023-05-21T07:13:41.065Z,466.00
2023-05-21T07:14:41.080Z,468.00
2023-05-21T07:15:41.337Z,467.00
2023-05-21T07:16:41.136Z,467.00
2023-05-21T07:17:41.131Z,470.00
2023-05-21T07:18:41.055Z,471.00
2023-05-21T07:19:41.028Z,469.00
2023-05-21T07:20:41.274Z,470.00
2023-05-21T07:21:41.038Z,470.00
2023-05-21T07:22:41.004Z,470.00
2023-05-21T07:23:41.036Z,472.00
2023-05-21T07:24:41.000Z,472.00
2023-05-21T07:25:41.280Z,471.00
2023-05-21T07:26:41.010Z,472.00
2023-05-21T07:27:40.968Z,469.00
2023-05-21T07:28:40.975Z,467.00
2023-05-21T07:29:40.952Z,467.00
2023-05-21T07:30:41.342Z,469.00
2023-05-21T07:31:41.011Z,471.00
2023-05-21T07:32:40.979Z,469.00
2023-05-21T07:33:40.955Z,469.00
2023-05-21T07:34:40.962Z,469.00
2023-05-21T07:35:41.293Z,471.00
2023-05-21T07:36:40.989Z,470.00
2023-05-21T07:37:41.011Z,469.00
2023-05-21T07:38:41.018Z,468.00
2023-05-21T07:39:41.039Z,470.00
2023-05-21T07:40:41.052Z,469.00
2023-05-21T07:41:41.048Z,469.00
2023-05-21T07:42:41.082Z,469.00
2023-05-21T07:43:41.086Z,467.00
2023-05-21T07:44:41.104Z,469.00
2023-05-21T07:45:41.099Z,470.00
2023-05-21T07:46:41.192Z,468.00
2023-05-21T07:47:41.122Z,467.00
2023-05-21T07:48:41.134Z,468.00
2023-05-21T07:49:41.115Z,467.00
2023-05-21T07:50:41.179Z,467.00
2023-05-21T07:51:41.134Z,470.00
2023-05-21T07:52:41.242Z,468.00
2023-05-21T07:53:41.193Z,468.00
2023-05-21T07:54:41.176Z,470.00
2023-05-21T07:55:41.204Z,468.00
2023-05-21T07:56:41.215Z,465.00
2023-05-21T07:57:41.232Z,466.00
2023-05-21T07:58:41.232Z,464.00
2023-05-21T07:59:41.272Z,465.00
2023-05-21T08:00:41.266Z,465.00
2023-05-21T08:01:41.267Z,466.00
2023-05-21T08:02:41.471Z,466.00
2023-05-21T08:03:41.399Z,468.00
2023-05-21T08:04:41.580Z,468.00
2023-05-21T08:05:41.309Z,469.00
2023-05-21T08:06:41.321Z,470.00
2023-05-21T08:07:41.401Z,470.00
2023-05-21T08:08:41.353Z,470.00
2023-05-21T08:09:41.359Z,472.00
2023-05-21T08:10:41.399Z,472.00
2023-05-21T08:11:41.386Z,470.00
2023-05-21T08:12:41.458Z,472.00
2023-05-21T08:13:41.434Z,471.00
2023-05-21T08:14:41.455Z,472.00
2023-05-21T08:15:41.465Z,474.00
2023-05-21T08:16:42.430Z,474.00
2023-05-21T08:17:41.543Z,474.00
2023-05-21T08:18:41.482Z,473.00
2023-05-21T08:19:41.464Z,471.00
2023-05-21T08:20:41.838Z,471.00
2023-05-21T08:21:41.515Z,470.00
2023-05-21T08:22:41.511Z,472.00
2023-05-21T08:23:41.510Z,470.00
2023-05-21T08:24:41.554Z,469.00
2023-05-21T08:25:41.538Z,468.00
2023-05-21T08:26:41.560Z,469.00
2023-05-21T08:27:41.580Z,470.00
2023-05-21T08:28:41.561Z,468.00
2023-05-21T08:29:41.589Z,468.00
2023-05-21T08:30:41.637Z,467.00
2023-05-21T08:31:41.644Z,466.00
2023-05-21T08:32:41.709Z,466.00
2023-05-21T08:33:41.615Z,466.00
2023-05-21T08:34:41.641Z,467.00
2023-05-21T08:35:41.653Z,468.00
2023-05-21T08:36:41.642Z,470.00
2023-05-21T08:37:41.661Z,470.00
2023-05-21T08:38:41.663Z,469.00
2023-05-21T08:39:41.660Z,470.00
2023-05-21T08:40:41.704Z,471.00
2023-05-21T08:41:41.683Z,471.00
2023-05-21T08:42:41.729Z,471.00
2023-05-21T08:43:41.693Z,470.00
2023-05-21T08:44:41.711Z,468.00
2023-05-21T08:45:41.722Z,469.00
2023-05-21T08:46:41.734Z,468.00
2023-05-21T08:47:41.799Z,468.00
2023-05-21T08:48:41.802Z,470.00
2023-05-21T08:49:41.775Z,469.00
2023-05-21T08:50:41.815Z,471.00
2023-05-21T08:51:41.865Z,471.00
2023-05-21T08:52:41.820Z,472.00
2023-05-21T08:53:41.847Z,473.00
2023-05-21T08:54:41.870Z,473.00
2023-05-21T08:55:42.305Z,473.00
2023-05-21T08:56:41.865Z,473.00
2023-05-21T08:57:41.915Z,471.00
2023-05-21T08:58:41.913Z,471.00
2023-05-21T08:59:41.923Z,471.00
2023-05-21T09:00:41.895Z,470.00
2023-05-21T09:01:41.997Z,468.00
2023-05-21T09:02:41.951Z,469.00
2023-05-21T09:03:41.969Z,469.00
2023-05-21T09:04:41.961Z,467.00
2023-05-21T09:05:41.951Z,467.00
2023-05-21T09:06:41.982Z,469.00
2023-05-21T09:07:41.986Z,469.00
2023-05-21T09:08:42.005Z,471.00
2023-05-21T09:09:42.034Z,474.00
2023-05-21T09:10:42.043Z,472.00
2023-05-21T09:11:42.038Z,467.00
2023-05-21T09:12:42.082Z,464.00
2023-05-21T09:13:42.049Z,463.00
2023-05-21T09:14:42.087Z,465.00
2023-05-21T09:15:42.105Z,467.00
2023-05-21T09:16:42.177Z,470.00
2023-05-21T09:17:42.147Z,472.00
2023-05-21T09:18:42.155Z,469.00
2023-05-21T09:19:42.190Z,471.00
2023-05-21T09:20:42.356Z,470.00
2023-05-21T09:21:42.201Z,470.00
2023-05-21T09:22:42.166Z,468.00
2023-05-21T09:23:42.195Z,467.00
2023-05-21T09:24:42.168Z,466.00
2023-05-21T09:25:42.214Z,466.00
2023-05-21T09:26:42.211Z,466.00
2023-05-21T09:27:42.196Z,466.00
2023-05-21T09:28:42.239Z,464.00
2023-05-21T09:29:42.240Z,464.00
2023-05-21T09:30:42.236Z,464.00
2023-05-21T09:31:42.272Z,463.00
2023-05-21T09:32:42.285Z,463.00
2023-05-21T09:33:42.272Z,461.00
2023-05-21T09:34:42.245Z,461.00
2023-05-21T09:35:42.270Z,462.00
2023-05-21T09:36:42.258Z,462.00
2023-05-21T09:37:42.294Z,462.00
2023-05-21T09:38:42.293Z,463.00
2023-05-21T09:39:42.306Z,464.00
2023-05-21T09:40:42.332Z,467.00
2023-05-21T09:41:42.337Z,467.00
2023-05-21T09:42:42.357Z,467.00
2023-05-21T09:43:42.403Z,466.00
2023-05-21T09:44:42.391Z,466.00
2023-05-21T09:45:42.865Z,463.00
2023-05-21T09:46:42.652Z,465.00
2023-05-21T09:47:42.499Z,465.00
2023-05-21T09:48:42.448Z,465.00
2023-05-21T09:49:42.488Z,463.00
2023-05-21T09:50:42.842Z,463.00
2023-05-21T09:51:42.475Z,464.00
2023-05-21T09:52:42.485Z,465.00
2023-05-21T09:53:42.486Z,467.00
2023-05-21T09:54:42.496Z,469.00
2023-05-21T09:55:42.852Z,470.00
2023-05-21T09:56:42.516Z,472.00
2023-05-21T09:57:42.549Z,473.00
2023-05-21T09:58:42.564Z,475.00
2023-05-21T09:59:42.565Z,475.00
2023-05-21T10:00:42.592Z,475.00
2023-05-21T10:01:42.639Z,476.00
2023-05-21T10:02:42.650Z,475.00
2023-05-21T10:03:42.637Z,473.00
2023-05-21T10:04:42.764Z,472.00
2023-05-21T10:05:42.644Z,471.00
2023-05-21T10:06:42.651Z,470.00
2023-05-21T10:07:42.642Z,472.00
2023-05-21T10:08:42.675Z,471.00
2023-05-21T10:09:42.672Z,471.00
2023-05-21T10:10:42.665Z,471.00
2023-05-21T10:11:42.695Z,471.00
2023-05-21T10:12:42.680Z,469.00
2023-05-21T10:13:42.688Z,469.00
2023-05-21T10:14:42.744Z,469.00
2023-05-21T10:15:42.731Z,470.00
2023-05-21T10:16:42.780Z,471.00
2023-05-21T10:17:42.762Z,469.00
2023-05-21T10:18:42.791Z,470.00
2023-05-21T10:19:42.754Z,471.00
2023-05-21T10:20:42.898Z,468.00
2023-05-21T10:21:42.788Z,464.00
2023-05-21T10:22:42.785Z,464.00
2023-05-21T10:23:42.792Z,466.00
2023-05-21T10:24:42.845Z,466.00
2023-05-21T10:25:42.820Z,467.00
2023-05-21T10:26:42.813Z,465.00
2023-05-21T10:27:42.829Z,463.00
2023-05-21T10:28:42.841Z,461.00
2023-05-21T10:29:42.842Z,459.00
2023-05-21T10:30:42.849Z,458.00
2023-05-21T10:31:42.897Z,458.00
2023-05-21T10:32:43.034Z,457.00
2023-05-21T10:33:42.930Z,457.00
2023-05-21T10:34:42.913Z,459.00
2023-05-21T10:35:42.888Z,462.00
2023-05-21T10:36:42.918Z,464.00
2023-05-21T10:37:42.910Z,465.00
2023-05-21T10:38:42.945Z,465.00
2023-05-21T10:39:42.916Z,464.00
2023-05-21T10:40:42.922Z,464.00
2023-05-21T10:41:42.939Z,465.00
2023-05-21T10:42:42.910Z,462.00
2023-05-21T10:43:42.911Z,462.00
2023-05-21T10:44:42.932Z,461.00
2023-05-21T10:45:42.964Z,460.00
2023-05-21T10:46:42.890Z,462.00
2023-05-21T10:47:42.951Z,460.00
2023-05-21T10:48:42.914Z,460.00
2023-05-21T10:49:42.864Z,458.00
2023-05-21T10:50:42.845Z,457.00
2023-05-21T10:51:42.888Z,459.00
2023-05-21T10:52:42.857Z,458.00
2023-05-21T10:53:42.877Z,459.00
2023-05-21T10:54:42.844Z,459.00
2023-05-21T10:55:42.858Z,458.00
2023-05-21T10:56:42.860Z,459.00
2023-05-21T10:57:42.832Z,459.00
2023-05-21T10:58:42.824Z,460.00
2023-05-21T10:59:42.863Z,458.00
2023-05-21T11:00:42.855Z,458.00
2023-05-21T11:01:42.909Z,458.00
2023-05-21T11:02:42.919Z,460.00
2023-05-21T11:03:42.933Z,460.00
2023-05-21T11:04:42.826Z,460.00
2023-05-21T11:05:42.829Z,460.00
2023-05-21T11:06:42.835Z,461.00
2023-05-21T11:07:42.834Z,461.00
2023-05-21T11:08:42.793Z,463.00
2023-05-21T11:09:42.819Z,463.00
2023-05-21T11:10:42.798Z,462.00
2023-05-21T11:11:42.833Z,463.00
2023-05-21T11:12:42.811Z,464.00
2023-05-21T11:13:42.816Z,462.00
2023-05-21T11:14:42.790Z,463.00
2023-05-21T11:15:42.814Z,464.00
2023-05-21T11:16:42.943Z,467.00
2023-05-21T11:17:42.777Z,469.00
2023-05-21T11:18:42.798Z,468.00
2023-05-21T11:19:42.888Z,466.00
2023-05-21T11:20:42.774Z,466.00
2023-05-21T11:21:42.938Z,465.00
2023-05-21T11:22:42.769Z,467.00
2023-05-21T11:23:42.764Z,467.00
2023-05-21T11:24:42.768Z,467.00
2023-05-21T11:25:42.753Z,465.00
2023-05-21T11:26:42.896Z,467.00
2023-05-21T11:27:42.753Z,467.00
2023-05-21T11:28:42.753Z,467.00
2023-05-21T11:29:42.825Z,467.00
2023-05-21T11:30:42.903Z,466.00
2023-05-21T11:31:42.966Z,462.00
2023-05-21T11:32:42.771Z,459.00
2023-05-21T11:33:42.815Z,458.00
2023-05-21T11:34:42.819Z,459.00
2023-05-21T11:35:42.828Z,460.00
2023-05-21T11:36:42.890Z,461.00
2023-05-21T11:37:42.788Z,462.00
2023-05-21T11:38:42.798Z,465.00
2023-05-21T11:39:42.851Z,463.00
2023-05-21T11:40:42.855Z,462.00
2023-05-21T11:41:42.839Z,460.00
2023-05-21T11:42:42.818Z,459.00
2023-05-21T11:43:42.800Z,460.00
2023-05-21T11:44:42.812Z,462.00
2023-05-21T11:45:42.812Z,460.00
2023-05-21T11:46:42.840Z,460.00
2023-05-21T11:47:42.854Z,461.00
2023-05-21T11:48:42.790Z,461.00
2023-05-21T11:49:42.798Z,461.00
2023-05-21T11:50:42.807Z,458.00
2023-05-21T11:51:42.912Z,458.00
2023-05-21T11:52:42.779Z,457.00
2023-05-21T11:53:44.195Z,458.00
2023-05-21T11:54:42.821Z,459.00
2023-05-21T11:55:42.819Z,458.00
2023-05-21T11:56:42.803Z,458.00
2023-05-21T11:57:42.844Z,458.00
2023-05-21T11:58:42.891Z,458.00
2023-05-21T11:59:42.893Z,457.00
2023-05-21T12:00:42.868Z,459.00
2023-05-21T12:01:42.903Z,458.00
2023-05-21T12:02:42.917Z,456.00
2023-05-21T12:03:42.990Z,459.00
2023-05-21T12:04:42.866Z,457.00
2023-05-21T12:05:42.976Z,458.00
2023-05-21T12:06:42.921Z,458.00
2023-05-21T12:07:42.865Z,459.00
2023-05-21T12:08:42.893Z,458.00
2023-05-21T12:09:42.972Z,458.00
2023-05-21T12:10:44.373Z,455.00
2023-05-21T12:11:43.120Z,453.00
2023-05-21T12:12:53.777Z,452.00
2023-05-21T12:13:44.186Z,452.00
2023-05-21T12:14:43.088Z,454.00
2023-05-21T12:15:43.104Z,455.00
2023-05-21T12:16:43.108Z,455.00
2023-05-21T12:17:43.125Z,455.00
2023-05-21T12:18:43.260Z,456.00
2023-05-21T12:19:43.071Z,456.00
2023-05-21T12:20:43.025Z,455.00
2023-05-21T12:21:43.055Z,457.00
2023-05-21T12:22:43.028Z,458.00
2023-05-21T12:23:43.022Z,458.00
2023-05-21T12:24:43.042Z,457.00
2023-05-21T12:25:43.003Z,457.00
2023-05-21T12:26:43.015Z,456.00
2023-05-21T12:27:42.993Z,455.00
2023-05-21T12:28:42.983Z,453.00